sensor_id;sensor_type;location;lat;lon;timestamp;pressure;altitude;pressure_sealevel;temperature;humidity
56070;BME280;41944;52.078;-0.058;2023-08-06T00:00:30;100916.41;;;14.25;100.00
56070;BME280;41944;52.078;-0.058;2023-08-06T00:02:57;100915.62;;;14.22;100.00
56070;BME280;41944;52.078;-0.058;2023-08-06T00:05:24;100919.92;;;14.17;99.02
56070;BME280;41944;52.078;-0.058;2023-08-06T00:07:51;100919.36;;;14.12;98.87
56070;BME280;41944;52.078;-0.058;2023-08-06T00:10:18;100926.37;;;14.09;97.59
56070;BME280;41944;52.078;-0.058;2023-08-06T00:12:46;100926.26;;;14.03;99.65
56070;BME280;41944;52.078;-0.058;2023-08-06T00:15:13;100926.34;;;14.11;99.80
56070;BME280;41944;52.078;-0.058;2023-08-06T00:17:40;100932.64;;;14.03;100.00
56070;BME280;41944;52.078;-0.058;2023-08-06T00:20:08;100930.58;;;13.86;100.00
56070;BME280;41944;52.078;-0.058;2023-08-06T00:22:36;100932.60;;;13.97;99.58
56070;BME280;41944;52.078;-0.058;2023-08-06T00:25:06;100933.48;;;14.01;98.12
56070;BME280;41944;52.078;-0.058;2023-08-06T00:27:33;100935.32;;;14.00;97.96
56070;BME280;41944;52.078;-0.058;2023-08-06T00:30:00;100944.84;;;14.10;97.87
56070;BME280;41944;52.078;-0.058;2023-08-06T00:32:27;100946.48;;;14.10;99.76
56070;BME280;41944;52.078;-0.058;2023-08-06T00:34:54;100944.56;;;13.95;99.68
56070;BME280;41944;52.078;-0.058;2023-08-06T00:37:21;100947.80;;;14.01;98.56
56070;BME280;41944;52.078;-0.058;2023-08-06T00:39:48;100951.43;;;13.97;99.09
56070;BME280;41944;52.078;-0.058;2023-08-06T00:42:14;100952.61;;;14.01;97.66
56070;BME280;41944;52.078;-0.058;2023-08-06T00:44:42;100955.90;;;13.93;97.26
56070;BME280;41944;52.078;-0.058;2023-08-06T00:47:09;100953.66;;;13.87;98.07
56070;BME280;41944;52.078;-0.058;2023-08-06T00:49:37;100958.73;;;13.88;98.74
56070;BME280;41944;52.078;-0.058;2023-08-06T00:52:07;100958.95;;;13.82;97.67
56070;BME280;41944;52.078;-0.058;2023-08-06T00:54:35;100963.22;;;13.69;98.23
56070;BME280;41944;52.078;-0.058;2023-08-06T00:57:04;100959.18;;;13.75;99.21
56070;BME280;41944;52.078;-0.058;2023-08-06T00:59:32;100966.36;;;13.66;98.20
56070;BME280;41944;52.078;-0.058;2023-08-06T01:01:59;100971.45;;;13.67;99.81
56070;BME280;41944;52.078;-0.058;2023-08-06T01:04:26;100974.47;;;13.76;96.93
56070;BME280;41944;52.078;-0.058;2023-08-06T01:07:00;100972.66;;;13.58;96.96
56070;BME280;41944;52.078;-0.058;2023-08-06T01:09:35;100970.59;;;13.52;97.44
56070;BME280;41944;52.078;-0.058;2023-08-06T01:12:12;100970.57;;;13.44;98.26
56070;BME280;41944;52.078;-0.058;2023-08-06T01:14:47;100970.68;;;13.37;98.97
56070;BME280;41944;52.078;-0.058;2023-08-06T01:17:18;100970.62;;;13.58;97.95
56070;BME280;41944;52.078;-0.058;2023-08-06T01:19:47;100976.73;;;13.40;98.50
56070;BME280;41944;52.078;-0.058;2023-08-06T01:22:13;100979.85;;;13.35;99.52
56070;BME280;41944;52.078;-0.058;2023-08-06T01:24:44;100985.70;;;13.25;98.61
56070;BME280;41944;52.078;-0.058;2023-08-06T01:27:19;100994.30;;;13.13;99.39
56070;BME280;41944;52.078;-0.058;2023-08-06T01:29:55;100997.64;;;13.07;100.00
56070;BME280;41944;52.078;-0.058;2023-08-06T01:32:25;100993.83;;;13.35;99.91
56070;BME280;41944;52.078;-0.058;2023-08-06T01:34:55;100996.49;;;13.44;98.98
56070;BME280;41944;52.078;-0.058;2023-08-06T01:37:23;100998.19;;;13.31;97.15
56070;BME280;41944;52.078;-0.058;2023-08-06T01:39:50;101008.54;;;13.05;99.60
56070;BME280;41944;52.078;-0.058;2023-08-06T01:42:17;101012.72;;;13.16;99.96
56070;BME280;41944;52.078;-0.058;2023-08-06T01:44:44;101013.30;;;12.94;99.17
56070;BME280;41944;52.078;-0.058;2023-08-06T01:47:12;101016.09;;;12.97;99.52
56070;BME280;41944;52.078;-0.058;2023-08-06T01:49:38;101020.23;;;13.15;98.86
56070;BME280;41944;52.078;-0.058;2023-08-06T01:52:07;101026.42;;;12.95;99.44
56070;BME280;41944;52.078;-0.058;2023-08-06T01:54:34;101023.42;;;13.01;99.29
56070;BME280;41944;52.078;-0.058;2023-08-06T01:57:01;101024.80;;;12.99;100.00
56070;BME280;41944;52.078;-0.058;2023-08-06T01:59:29;101024.93;;;13.01;97.99
56070;BME280;41944;52.078;-0.058;2023-08-06T02:01:56;101026.17;;;12.70;99.81
56070;BME280;41944;52.078;-0.058;2023-08-06T02:04:22;101031.22;;;12.64;100.00
56070;BME280;41944;52.078;-0.058;2023-08-06T02:06:49;101030.69;;;12.90;99.76
56070;BME280;41944;52.078;-0.058;2023-08-06T02:09:16;101031.93;;;12.59;100.00
56070;BME280;41944;52.078;-0.058;2023-08-06T02:11:43;101030.27;;;12.63;100.00
56070;BME280;41944;52.078;-0.058;2023-08-06T02:14:10;101032.05;;;12.56;100.00
56070;BME280;41944;52.078;-0.058;2023-08-06T02:16:38;101033.24;;;12.74;100.00
56070;BME280;41944;52.078;-0.058;2023-08-06T02:19:05;101035.17;;;12.60;100.00
56070;BME280;41944;52.078;-0.058;2023-08-06T02:21:32;101038.56;;;12.74;99.89
56070;BME280;41944;52.078;-0.058;2023-08-06T02:23:59;101044.99;;;12.68;99.85
56070;BME280;41944;52.078;-0.058;2023-08-06T02:26:26;101046.56;;;12.60;100.00
56070;BME280;41944;52.078;-0.058;2023-08-06T02:28:53;101047.27;;;12.58;100.00
56070;BME280;41944;52.078;-0.058;2023-08-06T02:31:20;101047.91;;;12.58;100.00
56070;BME280;41944;52.078;-0.058;2023-08-06T02:33:47;101046.67;;;12.54;100.00
56070;BME280;41944;52.078;-0.058;2023-08-06T02:36:14;101048.46;;;12.39;100.00
56070;BME280;41944;52.078;-0.058;2023-08-06T02:38:41;101048.49;;;12.44;100.00
56070;BME280;41944;52.078;-0.058;2023-08-06T02:41:07;101046.48;;;12.42;100.00
56070;BME280;41944;52.078;-0.058;2023-08-06T02:43:34;101041.83;;;12.32;100.00
56070;BME280;41944;52.078;-0.058;2023-08-06T02:46:02;101043.56;;;12.45;100.00
56070;BME280;41944;52.078;-0.058;2023-08-06T02:48:29;101044.18;;;12.30;100.00
56070;BME280;41944;52.078;-0.058;2023-08-06T02:50:58;101040.90;;;12.21;100.00
56070;BME280;41944;52.078;-0.058;2023-08-06T02:53:26;101046.42;;;12.35;100.00
56070;BME280;41944;52.078;-0.058;2023-08-06T02:55:53;101040.62;;;12.26;100.00
56070;BME280;41944;52.078;-0.058;2023-08-06T02:58:20;101038.25;;;12.52;100.00
56070;BME280;41944;52.078;-0.058;2023-08-06T03:00:58;101039.57;;;12.32;100.00
56070;BME280;41944;52.078;-0.058;2023-08-06T03:03:25;101042.09;;;12.30;100.00
56070;BME280;41944;52.078;-0.058;2023-08-06T03:05:52;101039.50;;;12.27;100.00
56070;BME280;41944;52.078;-0.058;2023-08-06T03:08:19;101042.25;;;12.37;99.92
56070;BME280;41944;52.078;-0.058;2023-08-06T03:10:46;101044.41;;;12.34;99.02
56070;BME280;41944;52.078;-0.058;2023-08-06T03:13:13;101042.28;;;12.29;100.00
56070;BME280;41944;52.078;-0.058;2023-08-06T03:15:40;101041.25;;;12.22;99.68
56070;BME280;41944;52.078;-0.058;2023-08-06T03:18:07;101046.51;;;12.35;99.76
56070;BME280;41944;52.078;-0.058;2023-08-06T03:20:35;101042.69;;;12.36;100.00
56070;BME280;41944;52.078;-0.058;2023-08-06T03:23:02;101043.30;;;12.38;100.00
56070;BME280;41944;52.078;-0.058;2023-08-06T03:25:29;101042.15;;;12.43;97.89
56070;BME280;41944;52.078;-0.058;2023-08-06T03:27:56;101040.19;;;12.27;99.34
56070;BME280;41944;52.078;-0.058;2023-08-06T03:30:23;101040.86;;;12.13;99.93
56070;BME280;41944;52.078;-0.058;2023-08-06T03:32:50;101039.13;;;12.16;99.28
56070;BME280;41944;52.078;-0.058;2023-08-06T03:35:17;101044.76;;;12.25;98.45
56070;BME280;41944;52.078;-0.058;2023-08-06T03:37:44;101053.35;;;12.11;99.23
56070;BME280;41944;52.078;-0.058;2023-08-06T03:40:11;101056.40;;;12.12;99.13
56070;BME280;41944;52.078;-0.058;2023-08-06T03:42:38;101055.98;;;12.37;98.00
56070;BME280;41944;52.078;-0.058;2023-08-06T03:45:06;101053.94;;;12.31;97.42
56070;BME280;41944;52.078;-0.058;2023-08-06T03:47:33;101053.57;;;12.22;98.11
56070;BME280;41944;52.078;-0.058;2023-08-06T03:50:00;101053.24;;;12.05;98.33
56070;BME280;41944;52.078;-0.058;2023-08-06T03:52:27;101056.75;;;12.18;99.71
56070;BME280;41944;52.078;-0.058;2023-08-06T03:54:54;101064.11;;;12.37;98.08
56070;BME280;41944;52.078;-0.058;2023-08-06T03:57:21;101062.62;;;12.31;97.94
56070;BME280;41944;52.078;-0.058;2023-08-06T03:59:48;101066.71;;;12.43;97.01
56070;BME280;41944;52.078;-0.058;2023-08-06T04:02:14;101066.04;;;12.23;96.95
56070;BME280;41944;52.078;-0.058;2023-08-06T04:04:41;101069.41;;;12.26;95.55
56070;BME280;41944;52.078;-0.058;2023-08-06T04:07:09;101066.73;;;12.25;96.81
56070;BME280;41944;52.078;-0.058;2023-08-06T04:09:52;101065.95;;;11.95;97.55
56070;BME280;41944;52.078;-0.058;2023-08-06T04:12:19;101074.60;;;12.10;97.19
56070;BME280;41944;52.078;-0.058;2023-08-06T04:14:46;101071.48;;;11.83;98.68
56070;BME280;41944;52.078;-0.058;2023-08-06T04:17:13;101076.72;;;11.89;98.93
56070;BME280;41944;52.078;-0.058;2023-08-06T04:19:40;101083.55;;;11.67;99.96
56070;BME280;41944;52.078;-0.058;2023-08-06T04:22:07;101087.56;;;11.88;97.68
56070;BME280;41944;52.078;-0.058;2023-08-06T04:24:34;101092.59;;;11.55;100.00
56070;BME280;41944;52.078;-0.058;2023-08-06T04:27:01;101089.31;;;11.80;99.98
56070;BME280;41944;52.078;-0.058;2023-08-06T04:29:27;101093.59;;;11.74;99.01
56070;BME280;41944;52.078;-0.058;2023-08-06T04:31:54;101095.19;;;11.56;100.00
56070;BME280;41944;52.078;-0.058;2023-08-06T04:34:21;101099.35;;;11.53;100.00
56070;BME280;41944;52.078;-0.058;2023-08-06T04:36:48;101099.07;;;11.60;100.00
56070;BME280;41944;52.078;-0.058;2023-08-06T04:39:15;101104.77;;;11.63;100.00
56070;BME280;41944;52.078;-0.058;2023-08-06T04:41:42;101108.71;;;11.65;99.94
56070;BME280;41944;52.078;-0.058;2023-08-06T04:44:09;101108.59;;;11.61;100.00
56070;BME280;41944;52.078;-0.058;2023-08-06T04:46:36;101112.28;;;11.48;100.00
56070;BME280;41944;52.078;-0.058;2023-08-06T04:49:03;101116.22;;;11.57;100.00
56070;BME280;41944;52.078;-0.058;2023-08-06T04:51:30;101117.36;;;11.52;100.00
56070;BME280;41944;52.078;-0.058;2023-08-06T04:53:58;101120.10;;;11.61;100.00
56070;BME280;41944;52.078;-0.058;2023-08-06T04:56:25;101118.28;;;11.53;100.00
56070;BME280;41944;52.078;-0.058;2023-08-06T04:58:53;101121.93;;;11.60;100.00
56070;BME280;41944;52.078;-0.058;2023-08-06T05:01:20;101125.26;;;11.71;99.89
56070;BME280;41944;52.078;-0.058;2023-08-06T05:03:47;101130.07;;;11.90;98.12
56070;BME280;41944;52.078;-0.058;2023-08-06T05:06:14;101135.46;;;11.75;98.40
56070;BME280;41944;52.078;-0.058;2023-08-06T05:08:41;101133.42;;;11.63;99.65
56070;BME280;41944;52.078;-0.058;2023-08-06T05:11:09;101136.39;;;11.46;100.00
56070;BME280;41944;52.078;-0.058;2023-08-06T05:13:36;101141.74;;;11.56;100.00
56070;BME280;41944;52.078;-0.058;2023-08-06T05:16:03;101144.18;;;11.74;100.00
56070;BME280;41944;52.078;-0.058;2023-08-06T05:18:30;101148.18;;;11.56;100.00
56070;BME280;41944;52.078;-0.058;2023-08-06T05:20:58;101145.80;;;11.66;100.00
56070;BME280;41944;52.078;-0.058;2023-08-06T05:23:25;101148.51;;;11.62;100.00
56070;BME280;41944;52.078;-0.058;2023-08-06T05:25:52;101150.16;;;11.92;99.47
56070;BME280;41944;52.078;-0.058;2023-08-06T05:28:19;101156.82;;;11.87;99.75
56070;BME280;41944;52.078;-0.058;2023-08-06T05:30:45;101162.34;;;11.99;98.18
56070;BME280;41944;52.078;-0.058;2023-08-06T05:33:13;101168.26;;;12.07;98.11
56070;BME280;41944;52.078;-0.058;2023-08-06T05:35:41;101167.87;;;12.06;99.67
56070;BME280;41944;52.078;-0.058;2023-08-06T05:38:08;101176.64;;;12.00;98.89
56070;BME280;41944;52.078;-0.058;2023-08-06T05:40:36;101175.59;;;12.21;99.01
56070;BME280;41944;52.078;-0.058;2023-08-06T05:43:03;101175.66;;;12.17;99.32
56070;BME280;41944;52.078;-0.058;2023-08-06T05:45:31;101176.52;;;12.27;98.66
56070;BME280;41944;52.078;-0.058;2023-08-06T05:47:57;101183.87;;;12.31;98.76
56070;BME280;41944;52.078;-0.058;2023-08-06T05:50:24;101181.63;;;12.42;98.38
56070;BME280;41944;52.078;-0.058;2023-08-06T05:52:51;101180.65;;;12.53;98.35
56070;BME280;41944;52.078;-0.058;2023-08-06T05:55:19;101183.19;;;12.66;98.23
56070;BME280;41944;52.078;-0.058;2023-08-06T05:57:47;101182.65;;;12.77;96.87
56070;BME280;41944;52.078;-0.058;2023-08-06T06:00:14;101191.97;;;12.83;96.85
56070;BME280;41944;52.078;-0.058;2023-08-06T06:02:42;101195.90;;;12.85;96.72
56070;BME280;41944;52.078;-0.058;2023-08-06T06:05:08;101196.92;;;12.82;97.14
56070;BME280;41944;52.078;-0.058;2023-08-06T06:07:35;101202.15;;;13.13;95.69
56070;BME280;41944;52.078;-0.058;2023-08-06T06:10:03;101200.01;;;13.22;94.60
56070;BME280;41944;52.078;-0.058;2023-08-06T06:12:30;101210.13;;;13.52;92.76
56070;BME280;41944;52.078;-0.058;2023-08-06T06:14:57;101208.44;;;13.48;92.62
56070;BME280;41944;52.078;-0.058;2023-08-06T06:17:24;101211.90;;;13.56;92.48
56070;BME280;41944;52.078;-0.058;2023-08-06T06:19:51;101209.41;;;13.50;93.31
56070;BME280;41944;52.078;-0.058;2023-08-06T06:22:19;101218.84;;;13.59;91.86
56070;BME280;41944;52.078;-0.058;2023-08-06T06:24:45;101221.65;;;13.69;91.66
56070;BME280;41944;52.078;-0.058;2023-08-06T06:27:12;101221.15;;;13.75;92.14
56070;BME280;41944;52.078;-0.058;2023-08-06T06:29:39;101222.07;;;13.72;91.04
56070;BME280;41944;52.078;-0.058;2023-08-06T06:32:07;101215.86;;;13.84;92.26
56070;BME280;41944;52.078;-0.058;2023-08-06T06:34:34;101222.08;;;14.02;91.66
56070;BME280;41944;52.078;-0.058;2023-08-06T06:37:03;101224.61;;;13.92;91.16
56070;BME280;41944;52.078;-0.058;2023-08-06T06:39:30;101216.76;;;14.02;92.04
56070;BME280;41944;52.078;-0.058;2023-08-06T06:41:57;101219.39;;;14.25;90.33
56070;BME280;41944;52.078;-0.058;2023-08-06T06:44:24;101221.24;;;14.42;90.23
56070;BME280;41944;52.078;-0.058;2023-08-06T06:46:51;101224.76;;;14.51;88.79
56070;BME280;41944;52.078;-0.058;2023-08-06T06:49:18;101231.40;;;14.59;87.56
56070;BME280;41944;52.078;-0.058;2023-08-06T06:51:45;101229.16;;;14.59;88.14
56070;BME280;41944;52.078;-0.058;2023-08-06T06:54:11;101233.49;;;14.58;88.60
56070;BME280;41944;52.078;-0.058;2023-08-06T06:56:38;101230.34;;;14.67;88.20
56070;BME280;41944;52.078;-0.058;2023-08-06T06:59:06;101235.52;;;14.78;87.06
56070;BME280;41944;52.078;-0.058;2023-08-06T07:01:33;101241.33;;;14.97;85.33
56070;BME280;41944;52.078;-0.058;2023-08-06T07:04:00;101240.54;;;15.06;85.37
56070;BME280;41944;52.078;-0.058;2023-08-06T07:06:27;101241.46;;;15.04;83.55
56070;BME280;41944;52.078;-0.058;2023-08-06T07:08:54;101247.61;;;14.96;84.73
56070;BME280;41944;52.078;-0.058;2023-08-06T07:11:20;101242.31;;;14.96;84.36
56070;BME280;41944;52.078;-0.058;2023-08-06T07:13:47;101248.41;;;14.87;83.88
56070;BME280;41944;52.078;-0.058;2023-08-06T07:16:14;101253.86;;;14.82;85.48
56070;BME280;41944;52.078;-0.058;2023-08-06T07:18:41;101249.66;;;15.01;85.52
56070;BME280;41944;52.078;-0.058;2023-08-06T07:21:08;101244.51;;;15.00;85.04
56070;BME280;41944;52.078;-0.058;2023-08-06T07:23:36;101249.55;;;15.26;83.54
56070;BME280;41944;52.078;-0.058;2023-08-06T07:26:03;101251.04;;;15.33;83.94
56070;BME280;41944;52.078;-0.058;2023-08-06T07:28:30;101256.66;;;15.34;84.61
56070;BME280;41944;52.078;-0.058;2023-08-06T07:30:57;101256.66;;;15.60;80.59
56070;BME280;41944;52.078;-0.058;2023-08-06T07:33:24;101254.97;;;15.61;81.44
56070;BME280;41944;52.078;-0.058;2023-08-06T07:35:51;101255.85;;;15.76;81.26
56070;BME280;41944;52.078;-0.058;2023-08-06T07:38:18;101257.25;;;15.80;80.99
56070;BME280;41944;52.078;-0.058;2023-08-06T07:40:45;101256.31;;;15.77;81.08
56070;BME280;41944;52.078;-0.058;2023-08-06T07:43:12;101262.31;;;15.96;80.02
56070;BME280;41944;52.078;-0.058;2023-08-06T07:45:39;101264.53;;;16.17;79.25
56070;BME280;41944;52.078;-0.058;2023-08-06T07:48:06;101264.84;;;16.22;79.38
56070;BME280;41944;52.078;-0.058;2023-08-06T07:50:34;101267.69;;;16.29;79.34
56070;BME280;41944;52.078;-0.058;2023-08-06T07:53:00;101269.26;;;16.37;79.61
56070;BME280;41944;52.078;-0.058;2023-08-06T07:55:27;101273.26;;;16.42;78.67
56070;BME280;41944;52.078;-0.058;2023-08-06T07:57:54;101272.68;;;16.41;77.83
56070;BME280;41944;52.078;-0.058;2023-08-06T08:00:21;101267.62;;;16.41;76.78
56070;BME280;41944;52.078;-0.058;2023-08-06T08:02:48;101269.02;;;16.44;78.21
56070;BME280;41944;52.078;-0.058;2023-08-06T08:05:15;101274.81;;;16.45;77.48
56070;BME280;41944;52.078;-0.058;2023-08-06T08:07:42;101276.01;;;16.48;75.74
56070;BME280;41944;52.078;-0.058;2023-08-06T08:10:09;101280.58;;;16.49;75.86
56070;BME280;41944;52.078;-0.058;2023-08-06T08:12:36;101275.84;;;16.65;75.49
56070;BME280;41944;52.078;-0.058;2023-08-06T08:15:04;101279.62;;;16.79;76.10
56070;BME280;41944;52.078;-0.058;2023-08-06T08:17:32;101282.68;;;16.79;75.59
56070;BME280;41944;52.078;-0.058;2023-08-06T08:19:58;101286.80;;;16.85;73.95
56070;BME280;41944;52.078;-0.058;2023-08-06T08:22:25;101287.30;;;16.84;74.41
56070;BME280;41944;52.078;-0.058;2023-08-06T08:24:52;101289.54;;;16.89;74.69
56070;BME280;41944;52.078;-0.058;2023-08-06T08:27:19;101287.33;;;16.80;74.47
56070;BME280;41944;52.078;-0.058;2023-08-06T08:29:46;101287.72;;;16.85;74.82
56070;BME280;41944;52.078;-0.058;2023-08-06T08:32:13;101286.64;;;16.75;72.64
56070;BME280;41944;52.078;-0.058;2023-08-06T08:34:39;101288.02;;;16.96;73.13
56070;BME280;41944;52.078;-0.058;2023-08-06T08:37:07;101290.54;;;17.05;72.77
56070;BME280;41944;52.078;-0.058;2023-08-06T08:39:34;101289.95;;;17.17;71.68
56070;BME280;41944;52.078;-0.058;2023-08-06T08:42:01;101286.05;;;16.90;70.37
56070;BME280;41944;52.078;-0.058;2023-08-06T08:44:29;101293.38;;;17.07;73.19
56070;BME280;41944;52.078;-0.058;2023-08-06T08:46:57;101287.19;;;17.26;71.61
56070;BME280;41944;52.078;-0.058;2023-08-06T08:49:24;101288.42;;;17.48;71.81
56070;BME280;41944;52.078;-0.058;2023-08-06T08:51:53;101290.17;;;17.58;69.30
56070;BME280;41944;52.078;-0.058;2023-08-06T08:54:23;101289.43;;;17.51;68.88
56070;BME280;41944;52.078;-0.058;2023-08-06T08:56:51;101293.09;;;17.67;67.63
56070;BME280;41944;52.078;-0.058;2023-08-06T08:59:18;101293.89;;;17.72;68.79
56070;BME280;41944;52.078;-0.058;2023-08-06T09:01:47;101293.93;;;17.72;65.80
56070;BME280;41944;52.078;-0.058;2023-08-06T09:04:15;101289.57;;;17.61;66.86
56070;BME280;41944;52.078;-0.058;2023-08-06T09:06:43;101293.23;;;17.87;68.20
56070;BME280;41944;52.078;-0.058;2023-08-06T09:09:17;101298.37;;;18.12;66.82
56070;BME280;41944;52.078;-0.058;2023-08-06T09:11:48;101293.59;;;17.98;66.06
56070;BME280;41944;52.078;-0.058;2023-08-06T09:14:16;101295.80;;;18.18;65.78
56070;BME280;41944;52.078;-0.058;2023-08-06T09:16:44;101298.26;;;18.20;64.78
56070;BME280;41944;52.078;-0.058;2023-08-06T09:19:13;101294.27;;;18.01;63.08
56070;BME280;41944;52.078;-0.058;2023-08-06T09:21:41;101295.16;;;18.14;63.96
56070;BME280;41944;52.078;-0.058;2023-08-06T09:24:09;101304.00;;;18.06;62.75
56070;BME280;41944;52.078;-0.058;2023-08-06T09:26:37;101310.67;;;18.06;61.98
56070;BME280;41944;52.078;-0.058;2023-08-06T09:29:05;101302.42;;;17.99;61.84
56070;BME280;41944;52.078;-0.058;2023-08-06T09:31:33;101315.18;;;17.79;60.83
56070;BME280;41944;52.078;-0.058;2023-08-06T09:34:00;101316.30;;;17.95;62.72
56070;BME280;41944;52.078;-0.058;2023-08-06T09:36:28;101310.78;;;17.98;59.64
56070;BME280;41944;52.078;-0.058;2023-08-06T09:38:55;101312.69;;;18.24;60.63
56070;BME280;41944;52.078;-0.058;2023-08-06T09:41:27;101314.16;;;18.16;59.90
56070;BME280;41944;52.078;-0.058;2023-08-06T09:43:54;101302.69;;;18.07;60.48
56070;BME280;41944;52.078;-0.058;2023-08-06T09:46:21;101313.16;;;18.25;60.59
56070;BME280;41944;52.078;-0.058;2023-08-06T09:48:48;101322.39;;;18.25;59.35
56070;BME280;41944;52.078;-0.058;2023-08-06T09:51:17;101323.20;;;18.51;58.83
56070;BME280;41944;52.078;-0.058;2023-08-06T09:53:44;101325.30;;;18.48;57.15
56070;BME280;41944;52.078;-0.058;2023-08-06T09:56:12;101329.10;;;18.60;57.82
56070;BME280;41944;52.078;-0.058;2023-08-06T09:58:41;101335.28;;;18.64;57.67
56070;BME280;41944;52.078;-0.058;2023-08-06T10:01:09;101337.01;;;18.68;57.58
56070;BME280;41944;52.078;-0.058;2023-08-06T10:03:39;101331.99;;;18.71;57.54
56070;BME280;41944;52.078;-0.058;2023-08-06T10:06:07;101342.48;;;18.77;56.97
56070;BME280;41944;52.078;-0.058;2023-08-06T10:08:35;101344.46;;;18.96;56.88
56070;BME280;41944;52.078;-0.058;2023-08-06T10:11:03;101352.77;;;18.87;55.26
56070;BME280;41944;52.078;-0.058;2023-08-06T10:13:33;101348.43;;;18.88;56.23
56070;BME280;41944;52.078;-0.058;2023-08-06T10:16:02;101349.73;;;19.05;56.23
56070;BME280;41944;52.078;-0.058;2023-08-06T10:18:31;101348.24;;;18.96;55.12
56070;BME280;41944;52.078;-0.058;2023-08-06T10:20:59;101350.32;;;19.03;56.81
56070;BME280;41944;52.078;-0.058;2023-08-06T10:23:33;101363.24;;;19.07;56.25
56070;BME280;41944;52.078;-0.058;2023-08-06T10:26:01;101355.83;;;19.17;56.58
56070;BME280;41944;52.078;-0.058;2023-08-06T10:28:36;101362.78;;;19.25;56.12
56070;BME280;41944;52.078;-0.058;2023-08-06T10:31:04;101362.91;;;19.36;55.89
56070;BME280;41944;52.078;-0.058;2023-08-06T10:33:48;101357.47;;;19.50;54.40
56070;BME280;41944;52.078;-0.058;2023-08-06T10:36:15;101358.94;;;19.45;54.63
56070;BME280;41944;52.078;-0.058;2023-08-06T10:38:47;101360.11;;;19.29;53.85
56070;BME280;41944;52.078;-0.058;2023-08-06T10:41:21;101355.07;;;19.38;54.46
56070;BME280;41944;52.078;-0.058;2023-08-06T10:43:48;101363.51;;;19.54;55.96
56070;BME280;41944;52.078;-0.058;2023-08-06T10:46:22;101363.75;;;19.51;56.69
56070;BME280;41944;52.078;-0.058;2023-08-06T10:48:50;101365.64;;;19.60;54.05
56070;BME280;41944;52.078;-0.058;2023-08-06T10:51:18;101364.16;;;19.53;54.91
56070;BME280;41944;52.078;-0.058;2023-08-06T10:53:45;101362.44;;;19.61;55.45
56070;BME280;41944;52.078;-0.058;2023-08-06T10:56:13;101362.95;;;19.65;54.90
56070;BME280;41944;52.078;-0.058;2023-08-06T10:58:41;101358.03;;;19.82;56.43
56070;BME280;41944;52.078;-0.058;2023-08-06T11:01:09;101358.28;;;19.85;54.22
56070;BME280;41944;52.078;-0.058;2023-08-06T11:03:38;101358.18;;;20.01;54.71
56070;BME280;41944;52.078;-0.058;2023-08-06T11:06:07;101356.85;;;20.10;55.16
56070;BME280;41944;52.078;-0.058;2023-08-06T11:08:35;101355.27;;;20.27;54.32
56070;BME280;41944;52.078;-0.058;2023-08-06T11:11:12;101355.98;;;20.59;53.12
56070;BME280;41944;52.078;-0.058;2023-08-06T11:13:40;101358.52;;;20.68;51.26
56070;BME280;41944;52.078;-0.058;2023-08-06T11:16:07;101353.00;;;20.30;50.44
56070;BME280;41944;52.078;-0.058;2023-08-06T11:18:35;101352.73;;;20.38;51.56
56070;BME280;41944;52.078;-0.058;2023-08-06T11:21:03;101353.53;;;19.94;53.66
56070;BME280;41944;52.078;-0.058;2023-08-06T11:23:30;101354.48;;;20.26;52.72
56070;BME280;41944;52.078;-0.058;2023-08-06T11:25:58;101351.18;;;20.30;51.71
56070;BME280;41944;52.078;-0.058;2023-08-06T11:28:25;101350.51;;;20.42;53.31
56070;BME280;41944;52.078;-0.058;2023-08-06T11:30:53;101354.85;;;20.41;50.68
56070;BME280;41944;52.078;-0.058;2023-08-06T11:33:20;101354.59;;;20.56;51.66
56070;BME280;41944;52.078;-0.058;2023-08-06T11:35:48;101350.42;;;20.42;51.35
56070;BME280;41944;52.078;-0.058;2023-08-06T11:38:15;101353.00;;;20.78;52.31
56070;BME280;41944;52.078;-0.058;2023-08-06T11:40:44;101348.39;;;21.00;52.15
56070;BME280;41944;52.078;-0.058;2023-08-06T11:43:12;101347.05;;;21.18;52.36
56070;BME280;41944;52.078;-0.058;2023-08-06T11:45:39;101341.82;;;21.43;51.86
56070;BME280;41944;52.078;-0.058;2023-08-06T11:48:06;101349.27;;;21.54;50.49
56070;BME280;41944;52.078;-0.058;2023-08-06T11:50:37;101343.22;;;21.64;48.30
56070;BME280;41944;52.078;-0.058;2023-08-06T11:53:05;101339.77;;;21.50;48.65
56070;BME280;41944;52.078;-0.058;2023-08-06T11:55:33;101351.07;;;21.29;49.46
56070;BME280;41944;52.078;-0.058;2023-08-06T11:58:03;101353.67;;;20.98;49.80
56070;BME280;41944;52.078;-0.058;2023-08-06T12:00:30;101355.04;;;20.82;51.38
56070;BME280;41944;52.078;-0.058;2023-08-06T12:02:58;101347.70;;;20.85;51.20
56070;BME280;41944;52.078;-0.058;2023-08-06T12:05:30;101343.92;;;21.14;52.36
56070;BME280;41944;52.078;-0.058;2023-08-06T12:07:58;101345.99;;;21.42;51.36
56070;BME280;41944;52.078;-0.058;2023-08-06T12:10:27;101349.38;;;21.21;49.11
56070;BME280;41944;52.078;-0.058;2023-08-06T12:12:55;101355.50;;;21.21;49.15
56070;BME280;41944;52.078;-0.058;2023-08-06T12:15:23;101346.69;;;21.21;50.30
56070;BME280;41944;52.078;-0.058;2023-08-06T12:17:50;101353.32;;;21.09;49.15
56070;BME280;41944;52.078;-0.058;2023-08-06T12:20:18;101353.29;;;20.81;50.40
56070;BME280;41944;52.078;-0.058;2023-08-06T12:22:45;101352.42;;;20.59;51.52
56070;BME280;41944;52.078;-0.058;2023-08-06T12:25:12;101352.54;;;20.65;50.30
56070;BME280;41944;52.078;-0.058;2023-08-06T12:27:40;101352.99;;;20.76;50.86
56070;BME280;41944;52.078;-0.058;2023-08-06T12:30:09;101352.03;;;20.42;51.77
56070;BME280;41944;52.078;-0.058;2023-08-06T12:32:37;101353.42;;;20.42;53.04
56070;BME280;41944;52.078;-0.058;2023-08-06T12:35:05;101357.15;;;20.26;51.76
56070;BME280;41944;52.078;-0.058;2023-08-06T12:37:33;101362.41;;;20.23;51.92
56070;BME280;41944;52.078;-0.058;2023-08-06T12:40:00;101362.46;;;20.09;52.17